createdAt,value
2019-03-01T00:03:37.253Z,75.80
2019-03-01T00:08:46.801Z,75.80
2019-03-01T00:11:24.706Z,75.90
2019-03-01T00:13:59.001Z,75.90
2019-03-01T00:16:50.104Z,75.70
2019-03-01T00:19:33.737Z,75.80
2019-03-01T00:22:23.200Z,75.90
2019-03-01T00:25:00.732Z,76.00
2019-03-01T00:37:57.039Z,75.60
2019-03-01T00:40:31.134Z,75.60
2019-03-01T00:43:02.619Z,75.40
2019-03-01T00:45:31.044Z,75.30
2019-03-01T00:50:27.762Z,75.20
2019-03-01T00:55:25.782Z,75.30
2019-03-01T00:57:56.846Z,75.30
2019-03-01T01:02:55.363Z,76.20
2019-03-01T01:05:24.353Z,76.50
2019-03-01T01:07:53.008Z,76.60
2019-03-01T01:10:21.616Z,76.90
2019-03-01T01:12:50.024Z,77.10
2019-03-01T01:15:18.424Z,77.20
2019-03-01T01:17:46.904Z,77.10
2019-03-01T01:20:15.796Z,77.00
2019-03-01T01:22:44.513Z,77.00
2019-03-01T01:25:12.896Z,76.90
2019-03-01T01:30:13.068Z,76.90
2019-03-01T01:32:41.476Z,76.80
2019-03-01T01:35:09.943Z,77.00
2019-03-01T01:37:38.603Z,76.90
2019-03-01T01:40:09.859Z,77.00
2019-03-01T01:42:38.601Z,76.90
2019-03-01T01:47:36.927Z,77.00
2019-03-01T01:50:08.290Z,77.00
2019-03-01T01:52:37.182Z,77.00
2019-03-01T01:55:06.949Z,77.00
2019-03-01T01:57:35.340Z,76.90
2019-03-01T02:00:09.238Z,76.90
2019-03-01T02:02:37.705Z,76.90
2019-03-01T02:05:06.621Z,76.80
2019-03-01T02:07:35.133Z,76.90
2019-03-01T02:10:05.604Z,76.80
2019-03-01T02:15:02.510Z,76.80
2019-03-01T02:19:59.241Z,76.70
2019-03-01T02:22:27.634Z,76.70
2019-03-01T02:24:56.241Z,76.60
2019-03-01T02:27:27.469Z,76.60
2019-03-01T02:29:56.040Z,76.50
2019-03-01T02:34:57.054Z,76.70
2019-03-01T02:37:25.542Z,76.80
2019-03-01T02:39:53.973Z,76.70
2019-03-01T02:47:20.206Z,76.90
2019-03-01T02:49:48.850Z,76.90
2019-03-01T02:52:17.326Z,76.80
2019-03-01T02:57:14.387Z,76.70
2019-03-01T02:59:42.918Z,76.50
2019-03-01T03:04:39.507Z,76.70
2019-03-01T03:07:18.428Z,76.50
2019-03-01T03:09:46.838Z,76.70
2019-03-01T03:12:15.334Z,76.70
2019-03-01T03:17:11.976Z,76.70
2019-03-01T03:19:40.500Z,76.60
2019-03-01T03:22:09.024Z,76.60
2019-03-01T03:24:37.493Z,76.50
2019-03-01T03:27:05.936Z,76.50
2019-03-01T03:29:34.377Z,76.50
2019-03-01T03:32:03.105Z,76.30
2019-03-01T03:34:31.492Z,76.30
2019-03-01T03:36:59.909Z,76.60
2019-03-01T03:39:28.406Z,76.80
2019-03-01T03:41:56.808Z,76.90
2019-03-01T03:44:25.416Z,76.80
2019-03-01T03:46:54.091Z,76.80
2019-03-01T03:49:22.512Z,76.80
2019-03-01T03:51:51.186Z,76.70
2019-03-01T03:54:19.652Z,76.90
2019-03-01T03:56:48.088Z,77.50
2019-03-01T04:01:44.681Z,78.30
2019-03-01T04:09:09.799Z,78.80
2019-03-01T04:11:38.362Z,79.00
2019-03-01T04:16:35.133Z,79.70
2019-03-01T04:19:03.553Z,79.90
2019-03-01T04:21:32.040Z,80.10
2019-03-01T04:26:28.943Z,80.10
2019-03-01T04:28:57.416Z,80.30
2019-03-01T04:31:25.974Z,80.10
2019-03-01T04:33:54.607Z,80.20
2019-03-01T04:36:23.039Z,80.40
2019-03-01T04:38:51.456Z,80.30
2019-03-01T04:41:19.894Z,80.60
2019-03-01T04:43:48.326Z,80.60
2019-03-01T04:46:18.256Z,80.80
2019-03-01T04:48:46.736Z,80.80
2019-03-01T04:51:15.132Z,80.60
2019-03-01T04:58:39.691Z,80.90
2019-03-01T05:01:08.294Z,80.90
2019-03-01T05:03:36.880Z,80.80
2019-03-01T05:06:05.384Z,80.80
2019-03-01T05:08:34.071Z,80.80
2019-03-01T05:11:02.469Z,81.00
2019-03-01T05:15:59.009Z,80.80
2019-03-01T05:23:23.556Z,80.50
2019-03-01T05:28:20.429Z,80.50
2019-03-01T05:33:17.391Z,80.30
2019-03-01T05:35:46.123Z,80.30
2019-03-01T05:38:21.464Z,80.30
2019-03-01T05:45:41.472Z,80.50
2019-03-01T05:48:09.989Z,81.40
2019-03-01T05:50:38.563Z,81.90
2019-03-01T05:53:06.952Z,82.00
2019-03-01T05:55:35.376Z,82.60
2019-03-01T05:58:28.921Z,83.10
2019-03-01T06:01:15.980Z,83.50
2019-03-01T06:03:53.174Z,83.70
2019-03-01T06:09:27.853Z,83.70
2019-03-01T06:12:02.156Z,83.80
2019-03-01T06:15:00.704Z,84.20
2019-03-01T06:18:05.552Z,84.10
2019-03-01T06:23:21.158Z,84.10
2019-03-01T06:25:55.614Z,84.10
2019-03-01T06:28:32.800Z,84.10
2019-03-01T06:31:07.164Z,84.00
2019-03-01T06:33:59.621Z,84.10
2019-03-01T06:42:19.630Z,84.20
2019-03-01T06:45:07.828Z,84.20
2019-03-01T06:50:16.952Z,84.50
2019-03-01T06:52:45.366Z,84.60
2019-03-01T06:55:22.649Z,84.60
2019-03-01T06:57:51.221Z,84.70
2019-03-01T07:00:20.040Z,84.70
2019-03-01T07:02:49.203Z,84.80
2019-03-01T07:07:46.015Z,84.90
2019-03-01T07:10:14.472Z,84.60
2019-03-01T07:12:46.704Z,84.50
2019-03-01T07:15:15.140Z,84.70
2019-03-01T07:22:41.187Z,84.80
2019-03-01T07:25:09.613Z,85.30
2019-03-01T07:30:10.928Z,85.40
2019-03-01T07:35:09.153Z,85.90
2019-03-01T07:37:37.549Z,86.00
2019-03-01T07:42:34.993Z,86.00
2019-03-01T07:45:04.138Z,86.00
2019-03-01T07:47:34.142Z,85.90
2019-03-01T07:50:03.073Z,86.10
2019-03-01T07:52:31.476Z,86.10
2019-03-01T07:54:59.866Z,86.20
2019-03-01T07:57:28.311Z,86.20
2019-03-01T07:59:56.757Z,86.20
2019-03-01T08:04:53.240Z,86.20
2019-03-01T08:07:23.615Z,86.60
2019-03-01T08:09:51.764Z,86.70
2019-03-01T08:12:21.948Z,86.60
2019-03-01T08:14:50.361Z,86.80
2019-03-01T08:17:19.077Z,86.70
2019-03-01T08:19:47.686Z,86.70
2019-03-01T08:22:16.069Z,86.90
2019-03-01T08:24:46.551Z,86.90
2019-03-01T08:29:43.318Z,86.80
2019-03-01T08:32:11.755Z,86.50
2019-03-01T08:34:40.148Z,86.50
2019-03-01T08:37:08.544Z,86.10
2019-03-01T08:39:39.726Z,86.00
2019-03-01T08:42:07.224Z,85.60
2019-03-01T08:49:32.237Z,85.50
2019-03-01T08:52:01.499Z,85.70
2019-03-01T08:54:31.196Z,85.60
2019-03-01T08:57:00.553Z,85.60
2019-03-01T09:01:58.904Z,85.80
2019-03-01T09:04:27.489Z,85.60
2019-03-01T09:06:55.891Z,85.50
2019-03-01T09:09:24.965Z,85.90
2019-03-01T09:11:56.541Z,86.00
2019-03-01T09:14:26.265Z,86.20
2019-03-01T09:16:55.241Z,86.30
2019-03-01T09:19:26.451Z,86.50
2019-03-01T09:24:25.635Z,86.20
2019-03-01T09:31:54.343Z,86.10
2019-03-01T09:34:22.812Z,86.20
2019-03-01T09:36:51.478Z,86.20
2019-03-01T09:49:15.492Z,85.20
2019-03-01T09:54:33.044Z,84.60
2019-03-01T09:57:01.436Z,84.20
2019-03-01T09:59:30.018Z,84.40
2019-03-01T10:01:58.418Z,84.50
2019-03-01T10:04:26.820Z,84.30
2019-03-01T10:06:55.480Z,84.40
2019-03-01T10:09:24.396Z,84.40
2019-03-01T10:19:19.061Z,84.80
2019-03-01T10:21:47.470Z,84.90
2019-03-01T10:26:45.598Z,84.90
2019-03-01T10:31:42.675Z,85.10
2019-03-01T10:36:39.249Z,84.80
2019-03-01T10:41:39.144Z,85.30
2019-03-01T10:44:07.552Z,85.40
2019-03-01T10:51:32.404Z,85.70
2019-03-01T10:56:29.070Z,85.40
2019-03-01T10:58:58.423Z,85.60
2019-03-01T11:01:27.057Z,85.70
2019-03-01T11:03:58.136Z,85.50
2019-03-01T11:06:26.617Z,84.80
2019-03-01T11:08:55.288Z,84.80
2019-03-01T11:11:24.152Z,84.70
2019-03-01T11:13:52.537Z,85.10
2019-03-01T11:18:49.290Z,84.70
2019-03-01T11:21:17.697Z,85.60
2019-03-01T11:26:14.240Z,85.40
2019-03-01T11:28:42.640Z,85.20
2019-03-01T11:33:39.141Z,84.40
2019-03-01T11:36:07.721Z,84.30
2019-03-01T11:38:36.137Z,84.40
2019-03-01T11:41:05.217Z,83.90
2019-03-01T11:43:33.832Z,83.40
2019-03-01T11:46:02.248Z,83.40
2019-03-01T11:50:59.164Z,83.90
2019-03-01T11:53:27.589Z,84.00
2019-03-01T12:00:52.599Z,83.80
2019-03-01T12:03:21.309Z,83.90
2019-03-01T12:05:49.903Z,84.40
2019-03-01T12:08:18.885Z,84.40
2019-03-01T12:10:48.933Z,84.40
2019-03-01T12:13:17.619Z,84.00
2019-03-01T12:15:46.092Z,84.00
2019-03-01T12:20:42.650Z,84.10
2019-03-01T12:23:11.045Z,84.40
2019-03-01T12:28:09.164Z,83.90
2019-03-01T12:30:38.037Z,83.80
2019-03-01T12:33:06.458Z,83.70
2019-03-01T12:38:03.044Z,82.70
2019-03-01T12:43:18.955Z,83.10
2019-03-01T12:48:17.074Z,83.30
2019-03-01T12:50:45.688Z,83.90
2019-03-01T13:00:40.591Z,83.40
2019-03-01T13:03:09.881Z,83.40
2019-03-01T13:08:06.748Z,83.20
2019-03-01T13:13:08.368Z,82.80
2019-03-01T13:15:36.656Z,82.90
2019-03-01T13:18:05.076Z,83.10
2019-03-01T13:23:04.951Z,81.50
2019-03-01T13:25:33.504Z,81.10
2019-03-01T13:28:02.183Z,80.40
2019-03-01T13:30:32.575Z,80.50
2019-03-01T13:33:02.242Z,80.60
2019-03-01T13:35:30.842Z,80.40
2019-03-01T13:40:27.551Z,81.00
2019-03-01T13:42:55.956Z,81.20
2019-03-01T13:45:26.581Z,81.10
2019-03-01T13:50:23.518Z,80.40
2019-03-01T13:52:52.180Z,81.10
2019-03-01T13:55:22.097Z,81.50
2019-03-01T13:57:51.507Z,81.60
2019-03-01T14:03:08.233Z,81.50
2019-03-01T14:05:36.676Z,81.30
2019-03-01T14:08:08.946Z,81.10
2019-03-01T14:13:05.551Z,81.40
2019-03-01T14:18:04.057Z,81.80
2019-03-01T14:20:32.638Z,81.80
2019-03-01T14:23:01.266Z,81.60
2019-03-01T14:25:29.861Z,81.70
2019-03-01T14:30:30.335Z,82.00
2019-03-01T14:32:58.656Z,82.40
2019-03-01T14:35:27.631Z,82.60
2019-03-01T14:37:56.038Z,82.80
2019-03-01T14:42:52.559Z,82.70
2019-03-01T14:45:28.360Z,82.80
2019-03-01T14:47:57.420Z,82.40
2019-03-01T14:50:29.872Z,82.40
2019-03-01T14:55:51.438Z,82.50
2019-03-01T15:01:07.429Z,83.00
2019-03-01T15:03:39.166Z,83.00
2019-03-01T15:06:08.129Z,82.90
2019-03-01T15:08:40.580Z,82.90
2019-03-01T15:13:38.033Z,83.00
2019-03-01T15:16:07.593Z,82.80
2019-03-01T15:18:37.600Z,82.90
2019-03-01T15:23:35.263Z,82.70
2019-03-01T15:26:04.066Z,82.80
2019-03-01T15:28:32.595Z,83.20
2019-03-01T15:31:02.381Z,83.30
2019-03-01T15:33:30.773Z,83.30
2019-03-01T15:35:59.327Z,83.40
2019-03-01T15:43:26.496Z,83.70
2019-03-01T15:48:24.097Z,83.50
2019-03-01T15:50:52.544Z,83.40
2019-03-01T15:53:25.017Z,83.30
2019-03-01T15:55:53.989Z,83.50
2019-03-01T15:58:22.445Z,83.70
2019-03-01T16:01:12.049Z,83.80
2019-03-01T16:03:41.904Z,84.00
2019-03-01T16:06:10.664Z,84.20
2019-03-01T16:11:12.726Z,84.60
2019-03-01T16:13:41.199Z,84.50
2019-03-01T16:16:10.786Z,84.80
2019-03-01T16:18:39.907Z,84.90
2019-03-01T16:21:08.614Z,85.10
2019-03-01T16:23:37.057Z,85.20
2019-03-01T16:28:33.860Z,85.20
2019-03-01T16:31:02.309Z,85.30
2019-03-01T16:41:07.474Z,86.00
2019-03-01T16:43:32.950Z,86.10
2019-03-01T16:46:01.723Z,86.30
2019-03-01T16:48:30.204Z,86.30
2019-03-01T16:53:27.161Z,86.50
2019-03-01T16:55:55.628Z,86.80
2019-03-01T17:00:54.393Z,87.00
2019-03-01T17:03:23.012Z,86.90
2019-03-01T17:05:51.452Z,86.90
2019-03-01T17:10:48.099Z,87.10
2019-03-01T17:13:16.517Z,87.10
2019-03-01T17:18:14.796Z,87.20
2019-03-01T17:20:43.756Z,87.40
2019-03-01T17:23:13.000Z,87.40
2019-03-01T17:28:11.201Z,87.60
2019-03-01T17:33:09.695Z,87.60
2019-03-01T17:40:37.165Z,87.70
2019-03-01T17:43:05.691Z,87.70
2019-03-01T17:45:34.090Z,87.80
2019-03-01T17:48:02.764Z,88.10
2019-03-01T17:50:31.226Z,88.10
2019-03-01T17:52:59.638Z,88.00
2019-03-01T18:02:56.749Z,88.10
2019-03-01T18:05:25.316Z,88.00
2019-03-01T18:07:54.089Z,88.00
2019-03-01T18:10:22.502Z,87.60
2019-03-01T18:12:53.154Z,87.70
2019-03-01T18:15:21.104Z,87.70
2019-03-01T18:17:49.665Z,87.80
2019-03-01T18:20:18.081Z,87.70
2019-03-01T18:22:46.736Z,87.70
2019-03-01T18:27:44.561Z,87.70
2019-03-01T18:32:59.893Z,87.80
2019-03-01T18:35:28.284Z,87.70
2019-03-01T18:42:53.218Z,88.10
2019-03-01T18:45:26.512Z,88.30
2019-03-01T18:47:54.988Z,88.40
2019-03-01T18:50:27.588Z,88.50
2019-03-01T18:52:57.212Z,88.50
2019-03-01T18:55:25.622Z,88.60
2019-03-01T18:57:54.027Z,88.60
2019-03-01T19:00:29.001Z,88.70
2019-03-01T19:05:26.208Z,88.70
2019-03-01T19:07:54.969Z,88.60
2019-03-01T19:10:27.578Z,88.70
2019-03-01T19:15:24.126Z,88.60
2019-03-01T19:17:52.565Z,88.60
2019-03-01T19:30:24.052Z,88.60
2019-03-01T19:32:55.485Z,88.70
2019-03-01T19:35:28.281Z,88.70
2019-03-01T19:37:54.452Z,88.80
2019-03-01T19:40:24.945Z,88.70
2019-03-01T19:42:53.358Z,88.80
2019-03-01T19:47:50.268Z,88.80
2019-03-01T19:50:29.071Z,88.80
2019-03-01T19:52:57.678Z,88.80
2019-03-01T19:55:26.072Z,88.80
2019-03-01T20:02:57.326Z,89.00
2019-03-01T20:05:31.727Z,89.10
2019-03-01T20:10:29.487Z,89.10
2019-03-01T20:15:27.605Z,89.00
2019-03-01T20:17:56.533Z,89.00
2019-03-01T20:20:29.959Z,89.10
2019-03-01T20:22:59.120Z,89.00
2019-03-01T20:25:27.523Z,89.00
2019-03-01T20:27:55.932Z,88.80
2019-03-01T20:30:35.068Z,89.00
2019-03-01T20:35:31.824Z,88.90
2019-03-01T20:43:00.169Z,88.80
2019-03-01T20:45:30.339Z,88.80
2019-03-01T20:47:59.748Z,89.00
2019-03-01T20:50:28.148Z,88.90
2019-03-01T20:52:56.548Z,88.90
2019-03-01T20:55:24.949Z,88.90
2019-03-01T20:57:53.353Z,89.10
2019-03-01T21:02:52.737Z,89.10
2019-03-01T21:05:21.161Z,89.20
2019-03-01T21:07:53.806Z,89.20
2019-03-01T21:10:24.364Z,89.10
2019-03-01T21:12:52.823Z,89.10
2019-03-01T21:15:22.025Z,89.00
2019-03-01T21:20:21.021Z,89.10
2019-03-01T21:22:50.049Z,89.20
2019-03-01T21:27:48.100Z,89.20
2019-03-01T21:33:02.942Z,89.40
2019-03-01T21:35:31.344Z,89.50
2019-03-01T21:40:31.363Z,89.60
2019-03-01T21:43:00.111Z,89.80
2019-03-01T21:47:57.446Z,89.70
2019-03-01T21:50:25.925Z,89.90
2019-03-01T21:52:54.321Z,89.80
2019-03-01T21:57:56.686Z,89.90
2019-03-01T22:00:29.728Z,89.60
2019-03-01T22:02:57.200Z,89.70
2019-03-01T22:05:26.372Z,89.50
2019-03-01T22:07:55.269Z,89.50
2019-03-01T22:10:23.682Z,89.60
2019-03-01T22:12:52.094Z,89.80
2019-03-01T22:15:26.866Z,89.80
2019-03-01T22:17:56.069Z,90.00
2019-03-01T22:22:53.144Z,90.20
2019-03-01T22:27:51.220Z,90.20
2019-03-01T22:32:53.921Z,90.10
2019-03-01T22:37:50.785Z,89.90
2019-03-01T22:42:49.694Z,89.90
2019-03-01T22:45:18.381Z,90.00
2019-03-01T22:47:47.050Z,89.90
2019-03-01T22:50:19.809Z,89.80
2019-03-01T22:55:17.604Z,89.80
2019-03-01T22:57:46.080Z,89.70
2019-03-01T23:00:47.509Z,89.70
2019-03-01T23:03:36.896Z,89.80
2019-03-01T23:08:35.586Z,89.80
2019-03-01T23:11:04.199Z,89.90
2019-03-01T23:13:32.597Z,89.90
2019-03-01T23:16:01.020Z,89.80
2019-03-01T23:21:00.958Z,89.90
2019-03-01T23:25:56.580Z,89.90
2019-03-01T23:28:25.217Z,90.00
2019-03-01T23:30:53.728Z,90.00
2019-03-01T23:33:22.133Z,90.00
2019-03-01T23:35:53.023Z,89.90
2019-03-01T23:38:20.667Z,89.80
2019-03-01T23:45:45.601Z,89.80
2019-03-01T23:50:43.976Z,89.60
2019-03-01T23:55:40.592Z,89.70
2019-03-01T23:58:09.170Z,89.70
